Ridgeway, VA (24148)

2:13 AM EDT on May 29, 2015 (GMT -0400)
Horsepasture | | Change Station
CLOSE
Current Station
Personal Weather Station
Location: Martinsville, VA
Elevation: 1037 ft
Nearby Weather Stations

Elev 1037 ft 36.65 °N, 79.93 °W | Updated 10 seconds ago

Partly Cloudy
Partly Cloudy
65.7 °F
Feels Like 65.7 °F
N
0.0
Wind Variable Wind from SW
Gusts 0.0 mph

Today
High -- | Low -- °F
--% Chance of Precip.
Yesterday
High -- | Low -- °F
Precip. -- in
6:03 AM 8:30 PM
Waxing Gibbous, 81% visible
Pressure 30.25 in
Visibility 4.0 miles
Clouds Clear
Dew Point 64 °F
Humidity 94%
Rainfall 0.02 in
Snow Depth Not available.
UV 0 out of 12
Pollen 7.80 out of 12
Air Quality Not available.
Flu Activity No Activity
METAR KMTV 290555Z AUTO 00000KT 4SM BR CLR 18/18 A3025 RMK AO2 T01840184 10238 20183 403260145

More Conditions Fewer Conditions

Pressure 30.25 in
Visibility 4.0 miles
Clouds Clear
Dew Point 64 °F
Humidity 94%
Rainfall 0.02 in
Snow Depth Not available.
UV 0 out of 12
Pollen 7.80 out of 12
Air Quality Not available.
Flu Activity No Activity
METAR KMTV 290555Z AUTO 00000KT 4SM BR CLR 18/18 A3025 RMK AO2 T01840184 10238 20183 403260145

More Conditions Fewer Conditions

10-Day Weather Forecast

Almanac

Astronomy

May. 29, 2015 Rise Set
Actual Time
Civil Twilight
Nautical Twilight
Astronomical Twilight
Moon
Length of Visible Light
Length of Day
Tomorrow will be .
, % of the Moon is Illuminated

Today's Extremes

State Highs State Lows

Community

WunderPhotos

Upload Photos

1,825,215 photos uploaded!

WunderBlogs® & News

Nearby

Air Quality

  Air Quality AQ Index Pollutant
Not available.

Snow Depth

Station Depth Elevation

Earthquake Activity

City Distance Mag. Time & Date
Minimum magnitude displayed is 2.5.

Coastal Water Temperatures

Place Temperature

Stations

Nearby Weather Stations

Station Location Temp. Windchill Dew Point Humidity Wind Precip. Elev Updated Type